createdAt,value
2022-08-15T00:00:45.509Z,100288.22
2022-08-15T00:04:01.205Z,100290.31
2022-08-15T00:06:38.865Z,100282.53
2022-08-15T00:09:20.632Z,100286.09
2022-08-15T00:11:53.165Z,100269.88
2022-08-15T00:14:31.108Z,100271.13
2022-08-15T00:17:04.485Z,100269.44
2022-08-15T00:19:41.650Z,100270.69
2022-08-15T00:22:18.084Z,100264.56
2022-08-15T00:24:51.473Z,100265.78
2022-08-15T00:27:23.304Z,100266.00
2022-08-15T00:29:55.209Z,100265.13
2022-08-15T00:33:01.992Z,100259.66
2022-08-15T00:35:38.597Z,100261.13
2022-08-15T00:38:21.217Z,100262.34
2022-08-15T00:41:22.012Z,100266.34
2022-08-15T00:43:55.789Z,100271.16
2022-08-15T00:46:23.436Z,100262.06
2022-08-15T00:48:51.844Z,100269.03
2022-08-15T00:51:44.454Z,100271.75
2022-08-15T00:54:57.545Z,100273.00
2022-08-15T00:57:59.544Z,100269.56
2022-08-15T01:00:33.958Z,100268.72
2022-08-15T01:03:14.226Z,100274.19
2022-08-15T01:05:51.864Z,100275.81
2022-08-15T01:08:27.845Z,100272.00
2022-08-15T01:11:05.505Z,100270.88
2022-08-15T01:14:02.889Z,100264.13
2022-08-15T01:16:34.006Z,100267.25
2022-08-15T01:19:53.330Z,100262.34
2022-08-15T01:23:11.101Z,100271.97
2022-08-15T01:26:42.385Z,100263.34
2022-08-15T01:28:45.357Z,100262.66
2022-08-15T01:31:19.444Z,100266.25
2022-08-15T01:34:00.579Z,100265.59
2022-08-15T01:36:32.330Z,100263.91
2022-08-15T01:39:34.673Z,100262.22
2022-08-15T01:42:11.250Z,100251.66
2022-08-15T01:45:00.097Z,100258.19
2022-08-15T01:47:43.147Z,100260.25
2022-08-15T01:50:29.490Z,100254.78
2022-08-15T01:53:16.301Z,100257.72
2022-08-15T01:55:59.681Z,100246.97
2022-08-15T01:58:31.410Z,100252.66
2022-08-15T02:01:19.419Z,100246.72
2022-08-15T02:04:03.210Z,100254.09
2022-08-15T02:06:36.702Z,100250.69
2022-08-15T02:09:37.630Z,100244.56
2022-08-15T02:13:04.441Z,100248.72
2022-08-15T02:15:01.164Z,100257.97
2022-08-15T02:17:31.563Z,100260.19
2022-08-15T02:20:01.648Z,100259.16
2022-08-15T02:22:48.703Z,100258.69
2022-08-15T02:25:23.065Z,100258.69
2022-08-15T02:27:54.654Z,100260.13
2022-08-15T02:30:31.687Z,100259.63
2022-08-15T02:33:05.430Z,100255.44
2022-08-15T02:35:38.927Z,100265.00
2022-08-15T02:38:18.882Z,100254.69
2022-08-15T02:40:51.428Z,100261.19
2022-08-15T02:43:21.419Z,100253.16
2022-08-15T02:45:55.812Z,100251.66
2022-08-15T02:48:26.944Z,100254.13
2022-08-15T02:50:56.463Z,100254.69
2022-08-15T02:53:26.843Z,100248.97
2022-08-15T02:55:54.701Z,100253.97
2022-08-15T02:58:29.811Z,100251.59
2022-08-15T03:00:58.008Z,100253.19
2022-08-15T03:03:39.228Z,100251.69
2022-08-15T03:06:16.544Z,100249.34
2022-08-15T03:09:02.473Z,100246.81
2022-08-15T03:11:52.541Z,100248.88
2022-08-15T03:14:34.359Z,100247.19
2022-08-15T03:17:06.806Z,100254.91
2022-08-15T03:19:39.521Z,100244.34
2022-08-15T03:22:09.578Z,100243.88
2022-08-15T03:24:41.496Z,100252.22
2022-08-15T03:27:10.349Z,100260.13
2022-08-15T03:29:52.102Z,100248.75
2022-08-15T03:32:32.508Z,100245.56
2022-08-15T03:35:09.170Z,100245.72
2022-08-15T03:37:43.167Z,100238.97
2022-08-15T03:40:13.403Z,100241.84
2022-08-15T03:43:05.350Z,100246.19
2022-08-15T03:45:46.827Z,100249.28
2022-08-15T03:48:22.568Z,100244.22
2022-08-15T03:50:57.423Z,100241.84
2022-08-15T03:53:32.454Z,100244.09
2022-08-15T03:56:02.518Z,100251.59
2022-08-15T03:58:36.285Z,100251.31
2022-08-15T04:01:13.156Z,100248.28
2022-08-15T04:03:42.574Z,100257.66
2022-08-15T04:06:16.885Z,100250.91
2022-08-15T04:09:12.437Z,100259.44
2022-08-15T04:11:46.358Z,100263.56
2022-08-15T04:14:33.463Z,100262.03
2022-08-15T04:17:13.942Z,100262.38
2022-08-15T04:19:55.946Z,100259.84
2022-08-15T04:22:39.436Z,100272.78
2022-08-15T04:25:38.717Z,100275.88
2022-08-15T04:28:28.645Z,100276.91
2022-08-15T04:31:12.321Z,100273.50
2022-08-15T04:34:44.147Z,100281.00
2022-08-15T04:36:30.687Z,100274.06
2022-08-15T04:39:03.087Z,100283.25
2022-08-15T04:41:37.192Z,100280.53
2022-08-15T04:44:17.068Z,100282.59
2022-08-15T04:46:52.295Z,100294.50
2022-08-15T04:49:20.507Z,100290.94
2022-08-15T04:51:50.976Z,100299.09
2022-08-15T04:54:18.206Z,100299.47
2022-08-15T04:56:59.037Z,100293.38
2022-08-15T04:59:35.532Z,100298.13
2022-08-15T05:02:49.878Z,100295.56
2022-08-15T05:05:06.821Z,100291.34
2022-08-15T05:07:36.318Z,100299.53
2022-08-15T05:10:11.541Z,100297.81
2022-08-15T05:12:42.433Z,100301.41
2022-08-15T05:15:14.837Z,100301.88
2022-08-15T05:17:56.541Z,100300.00
2022-08-15T05:20:27.819Z,100292.50
2022-08-15T05:23:03.283Z,100300.13
2022-08-15T05:25:42.352Z,100298.94
2022-08-15T05:28:29.176Z,100297.69
2022-08-15T05:31:14.245Z,100292.09
2022-08-15T05:33:57.512Z,100302.44
2022-08-15T05:36:32.330Z,100298.69
2022-08-15T05:39:26.123Z,100292.22
2022-08-15T05:42:31.783Z,100290.81
2022-08-15T05:45:12.750Z,100289.63
2022-08-15T05:48:24.686Z,100295.53
2022-08-15T05:51:18.999Z,100285.34
2022-08-15T05:54:10.587Z,100282.06
2022-08-15T05:57:10.493Z,100284.78
2022-08-15T05:59:48.663Z,100287.00
2022-08-15T06:02:36.597Z,100273.38
2022-08-15T06:05:14.431Z,100277.94
2022-08-15T06:07:52.325Z,100284.38
2022-08-15T06:10:35.796Z,100279.56
2022-08-15T06:13:18.650Z,100283.72
2022-08-15T06:16:46.975Z,100283.50
2022-08-15T06:19:34.155Z,100290.41
2022-08-15T06:22:43.584Z,100294.16
2022-08-15T06:25:25.254Z,100300.47
2022-08-15T06:28:53.907Z,100292.22
2022-08-15T06:31:40.376Z,100293.91
2022-08-15T06:34:46.089Z,100295.41
2022-08-15T06:37:28.835Z,100282.25
2022-08-15T06:40:27.929Z,100299.56
2022-08-15T06:42:59.162Z,100295.16
2022-08-15T06:45:50.757Z,100295.25
2022-08-15T06:48:59.166Z,100303.38
2022-08-15T06:51:13.006Z,100298.00
2022-08-15T06:53:54.089Z,100296.88
2022-08-15T06:56:46.747Z,100296.72
2022-08-15T06:59:56.561Z,100299.56
2022-08-15T07:02:45.424Z,100297.69
2022-08-15T07:05:31.613Z,100296.28
2022-08-15T07:08:11.489Z,100291.13
2022-08-15T07:10:58.020Z,100298.25
2022-08-15T07:14:29.507Z,100296.66
2022-08-15T07:17:18.733Z,100304.75
2022-08-15T07:19:52.534Z,100307.94
2022-08-15T07:22:37.087Z,100313.69
2022-08-15T07:25:17.176Z,100308.97
2022-08-15T07:28:04.290Z,100311.97
2022-08-15T07:30:59.435Z,100317.34
2022-08-15T07:33:43.732Z,100312.16
2022-08-15T07:36:30.279Z,100312.91
2022-08-15T07:39:49.156Z,100315.53
2022-08-15T07:42:28.451Z,100315.38
2022-08-15T07:45:28.048Z,100312.59
2022-08-15T07:48:07.334Z,100308.06
2022-08-15T07:50:45.053Z,100316.97
2022-08-15T07:53:22.841Z,100315.38
2022-08-15T07:56:40.509Z,100309.97
2022-08-15T07:59:25.792Z,100311.72
2022-08-15T08:02:37.079Z,100319.13
2022-08-15T08:05:10.094Z,100318.75
2022-08-15T08:07:51.432Z,100331.50
2022-08-15T08:10:39.353Z,100333.63
2022-08-15T08:13:53.197Z,100330.22
2022-08-15T08:16:31.845Z,100331.78
2022-08-15T08:19:27.459Z,100334.81
2022-08-15T08:22:25.237Z,100338.81
2022-08-15T08:25:47.374Z,100327.75
2022-08-15T08:28:29.257Z,100324.38
2022-08-15T08:31:28.902Z,100337.66
2022-08-15T08:34:38.788Z,100323.75
2022-08-15T08:37:59.349Z,100321.09
2022-08-15T08:41:14.715Z,100330.22
2022-08-15T08:44:34.607Z,100327.72
2022-08-15T08:47:22.223Z,100335.97
2022-08-15T08:50:44.800Z,100345.31
2022-08-15T08:53:56.535Z,100343.66
2022-08-15T08:56:41.026Z,100335.25
2022-08-15T08:59:25.630Z,100346.44
2022-08-15T09:02:29.623Z,100341.47
2022-08-15T09:05:14.501Z,100345.50
2022-08-15T09:07:52.073Z,100333.34
2022-08-15T09:10:30.870Z,100341.38
2022-08-15T09:13:19.566Z,100341.25
2022-08-15T09:15:54.628Z,100342.97
2022-08-15T09:19:21.103Z,100332.94
2022-08-15T09:21:48.569Z,100323.25
2022-08-15T09:24:37.301Z,100319.91
2022-08-15T09:27:54.977Z,100308.16
2022-08-15T09:30:45.727Z,100299.75
2022-08-15T09:33:55.248Z,100293.84
2022-08-15T09:36:47.021Z,100277.03
2022-08-15T09:39:46.903Z,100288.41
2022-08-15T09:42:35.929Z,100283.78
2022-08-15T09:45:44.928Z,100282.50
2022-08-15T09:48:46.825Z,100292.22
2022-08-15T09:51:21.285Z,100290.94
2022-08-15T09:54:28.697Z,100288.63
2022-08-15T09:57:44.439Z,100276.38
2022-08-15T10:00:20.322Z,100274.25
2022-08-15T10:02:54.253Z,100274.88
2022-08-15T10:05:46.629Z,100269.81
2022-08-15T10:08:28.942Z,100262.41
2022-08-15T10:11:15.949Z,100257.34
2022-08-15T10:13:47.722Z,100257.13
2022-08-15T10:16:43.001Z,100257.06
2022-08-15T10:19:32.631Z,100254.25
2022-08-15T10:22:23.533Z,100247.09
2022-08-15T10:25:37.905Z,100242.84
2022-08-15T10:28:36.715Z,100244.31
2022-08-15T10:31:02.393Z,100237.72
2022-08-15T10:33:35.447Z,100222.91
2022-08-15T10:36:20.666Z,100233.47
2022-08-15T10:39:32.629Z,100232.19
2022-08-15T10:42:22.111Z,100223.66
2022-08-15T10:45:09.834Z,100227.13
2022-08-15T10:48:05.059Z,100224.72
2022-08-15T10:51:12.041Z,100217.44
2022-08-15T10:53:58.655Z,100220.50
2022-08-15T10:57:04.948Z,100218.72
2022-08-15T10:59:22.737Z,100212.91
2022-08-15T11:01:51.575Z,100203.31
2022-08-15T11:04:48.930Z,100206.19
2022-08-15T11:07:29.932Z,100198.44
2022-08-15T11:10:04.145Z,100206.78
2022-08-15T11:12:41.719Z,100205.16
2022-08-15T11:15:23.195Z,100202.94
2022-08-15T11:18:21.684Z,100196.09
2022-08-15T11:20:57.081Z,100208.59
2022-08-15T11:26:36.800Z,100192.25
2022-08-15T11:29:16.827Z,100201.88
2022-08-15T11:32:00.804Z,100201.56
2022-08-15T11:34:43.942Z,100193.81
2022-08-15T11:37:18.271Z,100195.16
2022-08-15T11:40:26.669Z,100192.06
2022-08-15T11:42:58.466Z,100193.16
2022-08-15T11:45:49.426Z,100180.91
2022-08-15T11:48:40.751Z,100196.22
2022-08-15T11:51:24.930Z,100183.97
2022-08-15T11:54:34.383Z,100185.03
2022-08-15T11:57:17.343Z,100183.84
2022-08-15T12:00:52.036Z,100173.66
2022-08-15T12:04:42.190Z,100174.69
2022-08-15T12:06:34.761Z,100171.09
2022-08-15T12:09:42.478Z,100175.56
2022-08-15T12:12:33.494Z,100170.13
2022-08-15T12:15:41.830Z,100164.94
2022-08-15T12:18:32.317Z,100164.22
2022-08-15T12:21:13.819Z,100165.00
2022-08-15T12:24:15.635Z,100160.53
2022-08-15T12:26:48.356Z,100148.50
2022-08-15T12:29:35.139Z,100144.53
2022-08-15T12:32:35.988Z,100145.25
2022-08-15T12:34:55.612Z,100143.03
2022-08-15T12:37:39.020Z,100144.31
2022-08-15T12:40:56.859Z,100147.06
2022-08-15T12:42:59.971Z,100149.13
2022-08-15T12:45:36.181Z,100142.59
2022-08-15T12:48:35.961Z,100138.66
2022-08-15T12:51:05.983Z,100136.34
2022-08-15T12:53:33.460Z,100141.53
2022-08-15T12:56:00.983Z,100146.81
2022-08-15T12:58:29.092Z,100145.13
2022-08-15T13:01:03.661Z,100144.47
2022-08-15T13:04:01.395Z,100138.69
2022-08-15T13:06:56.015Z,100134.16
2022-08-15T13:09:28.743Z,100127.59
2022-08-15T13:11:56.834Z,100122.53
2022-08-15T13:14:25.099Z,100117.16
2022-08-15T13:17:09.470Z,100113.13
2022-08-15T13:20:05.007Z,100111.88
2022-08-15T13:22:52.062Z,100112.31
2022-08-15T13:25:23.107Z,100097.91
2022-08-15T13:27:51.250Z,100098.16
2022-08-15T13:30:22.526Z,100098.00
2022-08-15T13:33:03.130Z,100086.75
2022-08-15T13:35:30.933Z,100084.41
2022-08-15T13:38:04.955Z,100091.75
2022-08-15T13:40:34.676Z,100081.09
2022-08-15T13:43:11.754Z,100081.50
2022-08-15T13:45:56.942Z,100081.31
2022-08-15T13:48:38.585Z,100075.84
2022-08-15T13:51:12.721Z,100081.19
2022-08-15T13:56:33.862Z,100071.81
2022-08-15T13:59:12.369Z,100069.34
2022-08-15T14:01:47.542Z,100065.56
2022-08-15T14:04:29.942Z,100062.06
2022-08-15T14:06:57.547Z,100066.25
2022-08-15T14:10:06.089Z,100063.09
2022-08-15T14:12:15.729Z,100055.94
2022-08-15T14:14:46.807Z,100061.03
2022-08-15T14:17:15.397Z,100056.44
2022-08-15T14:20:02.334Z,100049.69
2022-08-15T14:22:32.668Z,100057.06
2022-08-15T14:27:50.075Z,100053.28
2022-08-15T14:30:19.936Z,100059.84
2022-08-15T14:32:51.571Z,100046.25
2022-08-15T14:35:24.345Z,100042.22
2022-08-15T14:37:54.533Z,100045.69
2022-08-15T14:40:42.869Z,100046.88
2022-08-15T14:43:18.095Z,100043.00
2022-08-15T14:46:31.590Z,100035.34
2022-08-15T14:48:50.366Z,100037.66
2022-08-15T14:52:12.285Z,100044.84
2022-08-15T14:54:44.242Z,100038.72
2022-08-15T14:57:10.274Z,100034.53
2022-08-15T14:59:56.577Z,100035.00
2022-08-15T15:02:28.622Z,100034.06
2022-08-15T15:04:58.994Z,100035.28
2022-08-15T15:07:57.626Z,100032.94
2022-08-15T15:10:24.781Z,100031.09
2022-08-15T15:12:59.096Z,100027.16
2022-08-15T15:15:42.187Z,100025.50
2022-08-15T15:18:33.936Z,100025.41
2022-08-15T15:21:02.623Z,100028.97
2022-08-15T15:23:29.964Z,100028.88
2022-08-15T15:25:57.144Z,100027.47
2022-08-15T15:28:41.337Z,100022.75
2022-08-15T15:31:13.286Z,100018.00
2022-08-15T15:33:44.205Z,100026.56
2022-08-15T15:36:27.529Z,100027.66
2022-08-15T15:39:06.100Z,100028.75
2022-08-15T15:41:47.247Z,100017.91
2022-08-15T15:44:25.746Z,100024.75
2022-08-15T15:47:01.755Z,100021.31
2022-08-15T15:49:40.092Z,100015.19
2022-08-15T15:52:13.877Z,100014.97
2022-08-15T15:54:52.646Z,100004.06
2022-08-15T15:58:00.847Z,100006.22
2022-08-15T16:00:28.106Z,100011.16
2022-08-15T16:03:01.994Z,100010.59
2022-08-15T16:06:02.984Z,100008.00
2022-08-15T16:08:36.591Z,100011.00
2022-08-15T16:11:26.028Z,100006.31
2022-08-15T16:14:21.203Z,100006.50
2022-08-15T16:17:09.411Z,100003.16
2022-08-15T16:20:06.143Z,99994.03
2022-08-15T16:23:01.202Z,99993.13
2022-08-15T16:25:42.616Z,99989.25
2022-08-15T16:28:22.325Z,99981.72
2022-08-15T16:31:18.531Z,99977.53
2022-08-15T16:34:15.903Z,99975.28
2022-08-15T16:36:54.704Z,99979.69
2022-08-15T16:39:32.332Z,99985.22
2022-08-15T16:42:48.690Z,99986.06
2022-08-15T16:45:21.852Z,99971.91
2022-08-15T16:48:13.381Z,99964.63
2022-08-15T16:51:11.939Z,99970.09
2022-08-15T16:54:33.751Z,99969.47
2022-08-15T16:57:16.587Z,99949.22
2022-08-15T17:00:18.645Z,99942.28
2022-08-15T17:03:30.581Z,99954.94
2022-08-15T17:06:09.179Z,99986.38
2022-08-15T17:08:50.288Z,100012.00
2022-08-15T17:11:57.712Z,100059.84
2022-08-15T17:15:16.701Z,100067.88
2022-08-15T17:18:24.931Z,100078.66
2022-08-15T17:22:00.738Z,100041.50
2022-08-15T17:24:59.381Z,100018.88
2022-08-15T17:28:33.961Z,100012.59
2022-08-15T17:30:58.581Z,100023.00
2022-08-15T17:33:45.375Z,100012.25
2022-08-15T17:36:17.923Z,100002.47
2022-08-15T17:39:03.680Z,100005.94
2022-08-15T17:41:41.260Z,100013.75
2022-08-15T17:44:56.725Z,100026.22
2022-08-15T17:47:16.044Z,100021.56
2022-08-15T17:49:58.392Z,100016.06
2022-08-15T17:52:35.549Z,100015.88
2022-08-15T17:55:15.268Z,100016.78
2022-08-15T17:58:01.578Z,100021.66
2022-08-15T18:00:38.518Z,100025.50
2022-08-15T18:03:12.845Z,100027.16
2022-08-15T18:06:04.268Z,100034.56
2022-08-15T18:08:54.645Z,100037.78
2022-08-15T18:11:37.666Z,100034.88
2022-08-15T18:14:38.951Z,100031.88
2022-08-15T18:17:07.188Z,100049.84
2022-08-15T18:19:37.261Z,100060.88
2022-08-15T18:22:22.446Z,100066.66
2022-08-15T18:24:59.937Z,100053.38
2022-08-15T18:27:55.795Z,100061.00
2022-08-15T18:30:27.068Z,100065.66
2022-08-15T18:33:03.636Z,100062.28
2022-08-15T18:35:36.248Z,100054.28
2022-08-15T18:38:17.344Z,100058.09
2022-08-15T18:41:07.648Z,100054.09
2022-08-15T18:43:55.234Z,100047.38
2022-08-15T18:46:28.729Z,100049.94
2022-08-15T18:49:01.950Z,100047.03
2022-08-15T18:51:40.111Z,100053.78
2022-08-15T18:54:48.607Z,100057.25
2022-08-15T18:57:46.416Z,100080.31
2022-08-15T19:00:20.237Z,100079.53
2022-08-15T19:03:00.671Z,100072.56
2022-08-15T19:05:43.236Z,100084.38
2022-08-15T19:08:26.552Z,100081.03
2022-08-15T19:10:58.112Z,100092.44
2022-08-15T19:13:43.492Z,100101.31
2022-08-15T19:16:30.017Z,100115.91
2022-08-15T19:19:11.606Z,100121.00
2022-08-15T19:21:38.716Z,100144.66
2022-08-15T19:24:08.371Z,100201.25
2022-08-15T19:26:49.133Z,100223.44
2022-08-15T19:29:46.518Z,100210.78
2022-08-15T19:32:38.945Z,100241.94
2022-08-15T19:35:23.924Z,100240.00
2022-08-15T19:38:14.085Z,100226.53
2022-08-15T19:40:52.671Z,100219.34
2022-08-15T19:43:43.090Z,100219.78
2022-08-15T19:46:45.592Z,100226.75
2022-08-15T19:50:06.284Z,100221.22
2022-08-15T19:53:20.462Z,100227.72
2022-08-15T19:56:02.851Z,100238.66
2022-08-15T19:58:57.160Z,100247.47
2022-08-15T20:01:48.586Z,100248.47
2022-08-15T20:04:54.364Z,100242.56
2022-08-15T20:07:37.879Z,100247.81
2022-08-15T20:11:02.550Z,100251.00
2022-08-15T20:14:02.308Z,100265.56
2022-08-15T20:17:29.247Z,100279.25
2022-08-15T20:20:30.805Z,100264.88
2022-08-15T20:23:17.783Z,100271.50
2022-08-15T20:26:00.520Z,100274.44
2022-08-15T20:28:38.732Z,100281.81
2022-08-15T20:31:58.157Z,100272.53
2022-08-15T20:34:32.025Z,100270.19
2022-08-15T20:37:05.865Z,100273.53
2022-08-15T20:39:43.310Z,100272.88
2022-08-15T20:42:27.080Z,100269.69
2022-08-15T20:45:13.149Z,100272.22
2022-08-15T20:48:40.847Z,100274.09
2022-08-15T20:50:40.338Z,100271.38
2022-08-15T20:53:08.776Z,100275.59
2022-08-15T20:55:44.499Z,100274.72
2022-08-15T20:58:21.217Z,100281.25
2022-08-15T21:01:14.629Z,100285.03
2022-08-15T21:04:01.435Z,100281.66
2022-08-15T21:06:49.638Z,100285.19
2022-08-15T21:09:46.191Z,100283.72
2022-08-15T21:12:25.781Z,100291.06
2022-08-15T21:16:04.239Z,100281.78
2022-08-15T21:18:44.137Z,100284.25
2022-08-15T21:21:24.215Z,100286.16
2022-08-15T21:24:02.074Z,100275.88
2022-08-15T21:26:40.771Z,100274.81
2022-08-15T21:29:28.612Z,100275.88
2022-08-15T21:31:58.765Z,100275.66
2022-08-15T21:34:32.348Z,100285.94
2022-08-15T21:37:12.596Z,100297.09
2022-08-15T21:40:05.043Z,100301.03
2022-08-15T21:42:46.032Z,100291.78
2022-08-15T21:45:22.110Z,100287.38
2022-08-15T21:48:35.246Z,100293.91
2022-08-15T21:51:35.846Z,100288.81
2022-08-15T21:54:25.513Z,100286.75
2022-08-15T21:57:06.963Z,100290.31
2022-08-15T22:00:21.488Z,100292.84
2022-08-15T22:02:59.925Z,100293.50
2022-08-15T22:05:36.276Z,100293.25
2022-08-15T22:08:16.760Z,100298.88
2022-08-15T22:10:53.370Z,100300.88
2022-08-15T22:13:23.838Z,100297.50
2022-08-15T22:15:53.330Z,100303.34
2022-08-15T22:18:28.690Z,100293.28
2022-08-15T22:21:11.085Z,100300.63
2022-08-15T22:23:45.537Z,100302.72
2022-08-15T22:26:36.578Z,100303.56
2022-08-15T22:29:31.767Z,100303.94
2022-08-15T22:32:30.645Z,100317.16
2022-08-15T22:34:57.635Z,100331.72
2022-08-15T22:37:33.630Z,100336.06
2022-08-15T22:40:10.089Z,100330.38
2022-08-15T22:42:43.166Z,100332.56
2022-08-15T22:45:46.695Z,100337.19
2022-08-15T22:48:24.442Z,100342.53
2022-08-15T22:51:09.097Z,100339.75
2022-08-15T22:53:38.925Z,100349.81
2022-08-15T22:56:50.255Z,100348.16
2022-08-15T22:58:57.950Z,100354.19
2022-08-15T23:01:38.903Z,100357.03
2022-08-15T23:04:41.902Z,100368.63
2022-08-15T23:07:57.024Z,100368.75
2022-08-15T23:10:42.307Z,100370.34
2022-08-15T23:13:21.727Z,100377.03
2022-08-15T23:16:05.221Z,100381.81
2022-08-15T23:19:01.791Z,100384.72
2022-08-15T23:21:29.898Z,100378.41
2022-08-15T23:24:01.106Z,100386.31
2022-08-15T23:26:32.693Z,100383.03
2022-08-15T23:29:07.401Z,100386.59
2022-08-15T23:31:49.042Z,100394.78
2022-08-15T23:34:21.532Z,100396.66
2022-08-15T23:37:14.594Z,100399.22
2022-08-15T23:40:04.162Z,100392.06
2022-08-15T23:42:38.546Z,100402.13
2022-08-15T23:45:13.960Z,100394.16
2022-08-15T23:47:42.518Z,100390.94
2022-08-15T23:50:11.173Z,100392.34
2022-08-15T23:52:39.698Z,100390.19
2022-08-15T23:55:12.409Z,100395.16
2022-08-15T23:57:43.324Z,100394.50
